Hamilton, MT (59840)

5:08 AM MST on December 07, 2016 (GMT -0700)
Hamilton West Side | | Change Station
Active Advisory: Wind Chill Advisory

Elev 3615 ft 46.25 °N, 114.18 °W | Updated 24 seconds ago

Overcast
Overcast
13.6 °F
Feels Like 14 °F
N
0.0
Wind Variable Wind from ESE
Gusts 1.1 mph

Today
High -- | Low -- °F
--% Chance of Precip.
Yesterday
High -- | Low -- °F
Precip. -- in
Pressure 30.50 in
Visibility 10.0 miles
Clouds Few 3100 ft
Overcast 4400 ft
Windchill 14 °F
Dew Point -2 °F
Humidity 50%
Rainfall 0.00 in
Snow Depth Not available.
8:06 AM 4:50 PM
First Quarter, 52% visible
METAR KMSO 071153Z AUTO 12013KT 10SM FEW031 OVC044 M11/M18 A3033 RMK AO2 SLP326 T11111183 11106 21111 51018
Pressure 30.50 in
Visibility 10.0 miles
Clouds Few 3100 ft
Overcast 4400 ft
Windchill 14 °F
Dew Point -2 °F
Humidity 50%
Rainfall 0.00 in
Snow Depth Not available.
8:06 AM 4:50 PM
First Quarter, 52% visible
METAR KMSO 071153Z AUTO 12013KT 10SM FEW031 OVC044 M11/M18 A3033 RMK AO2 SLP326 T11111183 11106 21111 51018

10-Day Weather Forecast

Almanac

Astronomy

Dec. 07, 2016 Rise Set
Actual Time
Civil Twilight
Nautical Twilight
Astronomical Twilight
Moon
Length of Visible Light
Length of Day
Tomorrow will be .
, % of the Moon is Illuminated

Today's Extremes

State Highs State Lows

Community

WunderPhotos

Upload Photos

1,956,111 photos uploaded!

WunderBlog® & News

Nearby

Air Quality

  Air Quality AQ Index Pollutant
Not available.

Snow Depth

Station Depth Elevation

Earthquake Activity

City Distance Mag. Time & Date
Minimum magnitude displayed is 2.5.

Coastal Water Temperatures

Place Temperature

Stations

Nearby Weather Stations

Station Location Temp. Windchill Dew Point Humidity Wind Precip. Elev Updated Type
                   

Watches & Warnings

Wind Chill Advisory
Issued: 2:38 PM MST Dec. 6, 2016 – National Weather Service

... Wind Chill Advisory remains in effect until noon MST Wednesday
for Bitterroot valley and Missoula...

* impacts/timing: very cold winds chill values will continue to
impact the valley into Wednesday morning. Northerly winds will
slowly develop in parts of the Bitterroot valley and also
produce wind chill concerns overnight tonight as well.

* Wind chill values: 10 to 15 degrees below zero during the
morning.